sensor_id;sensor_type;location;lat;lon;timestamp;pressure;altitude;pressure_sealevel;temperature;humidity
48644;BME280;34928;37.302;-121.984;2023-05-07T00:08:32;101206.0;;;27.56;27.10
48644;BME280;34928;37.302;-121.984;2023-05-07T00:18:38;101205.0;;;27.95;26.81
48644;BME280;34928;37.302;-121.984;2023-05-07T00:28:43;101206.0;;;27.95;26.75
48644;BME280;34928;37.302;-121.984;2023-05-07T00:38:48;101214.0;;;27.93;26.69
48644;BME280;34928;37.302;-121.984;2023-05-07T00:48:54;101205.0;;;27.79;26.74
48644;BME280;34928;37.302;-121.984;2023-05-07T00:58:58;101207.0;;;27.58;26.91
48644;BME280;34928;37.302;-121.984;2023-05-07T01:09:03;101211.0;;;27.50;26.77
48644;BME280;34928;37.302;-121.984;2023-05-07T01:19:09;101213.0;;;27.64;26.53
48644;BME280;34928;37.302;-121.984;2023-05-07T01:29:18;101220.0;;;27.80;26.49
48644;BME280;34928;37.302;-121.984;2023-05-07T01:39:24;101219.0;;;27.55;26.64
48644;BME280;34928;37.302;-121.984;2023-05-07T01:49:29;101217.0;;;27.33;26.77
48644;BME280;34928;37.302;-121.984;2023-05-07T01:59:32;101219.0;;;27.25;26.84
48644;BME280;34928;37.302;-121.984;2023-05-07T02:09:37;101223.0;;;27.50;26.53
48644;BME280;34928;37.302;-121.984;2023-05-07T02:19:44;101222.0;;;27.51;26.47
48644;BME280;34928;37.302;-121.984;2023-05-07T02:29:48;101223.0;;;27.43;26.46
48644;BME280;34928;37.302;-121.984;2023-05-07T02:39:53;101227.0;;;27.15;26.62
48644;BME280;34928;37.302;-121.984;2023-05-07T02:49:59;101241.0;;;26.93;26.76
48644;BME280;34928;37.302;-121.984;2023-05-07T03:00:12;101243.0;;;27.10;26.65
48644;BME280;34928;37.302;-121.984;2023-05-07T03:10:18;101248.0;;;27.39;26.46
48644;BME280;34928;37.302;-121.984;2023-05-07T03:20:23;101248.0;;;27.13;26.43
48644;BME280;34928;37.302;-121.984;2023-05-07T03:30:28;101245.0;;;27.02;26.47
48644;BME280;34928;37.302;-121.984;2023-05-07T03:40:34;101247.0;;;26.90;26.46
48644;BME280;34928;37.302;-121.984;2023-05-07T03:50:38;101255.0;;;27.00;26.34
48644;BME280;34928;37.302;-121.984;2023-05-07T04:00:43;101255.0;;;27.03;26.47
48644;BME280;34928;37.302;-121.984;2023-05-07T04:10:54;101266.0;;;26.94;26.45
48644;BME280;34928;37.302;-121.984;2023-05-07T04:20:58;101264.0;;;28.16;25.94
48644;BME280;34928;37.302;-121.984;2023-05-07T04:31:03;101263.0;;;27.57;25.66
48644;BME280;34928;37.302;-121.984;2023-05-07T04:41:08;101272.0;;;27.65;25.68
48644;BME280;34928;37.302;-121.984;2023-05-07T04:51:12;101279.0;;;27.31;26.10
48644;BME280;34928;37.302;-121.984;2023-05-07T05:01:18;101275.0;;;27.81;26.02
48644;BME280;34928;37.302;-121.984;2023-05-07T05:11:23;101292.0;;;27.73;25.43
48644;BME280;34928;37.302;-121.984;2023-05-07T05:21:27;101300.0;;;27.61;25.63
48644;BME280;34928;37.302;-121.984;2023-05-07T05:31:34;101302.0;;;27.45;25.93
48644;BME280;34928;37.302;-121.984;2023-05-07T05:41:38;101300.0;;;27.39;25.89
48644;BME280;34928;37.302;-121.984;2023-05-07T05:51:43;101300.0;;;27.10;26.18
48644;BME280;34928;37.302;-121.984;2023-05-07T06:01:48;101303.0;;;27.07;26.21
48644;BME280;34928;37.302;-121.984;2023-05-07T06:11:52;101301.0;;;27.73;25.92
48644;BME280;34928;37.302;-121.984;2023-05-07T06:21:58;101310.0;;;28.13;25.19
48644;BME280;34928;37.302;-121.984;2023-05-07T06:32:12;101303.0;;;27.71;25.39
48644;BME280;34928;37.302;-121.984;2023-05-07T06:42:17;101298.0;;;27.32;25.68
48644;BME280;34928;37.302;-121.984;2023-05-07T06:52:23;101302.0;;;27.72;26.11
48644;BME280;34928;37.302;-121.984;2023-05-07T07:02:28;101309.0;;;27.56;25.87
48644;BME280;34928;37.302;-121.984;2023-05-07T07:12:33;101312.0;;;27.19;26.17
48644;BME280;34928;37.302;-121.984;2023-05-07T07:22:38;101312.0;;;27.05;26.21
48644;BME280;34928;37.302;-121.984;2023-05-07T07:32:43;101306.0;;;27.54;26.01
48644;BME280;34928;37.302;-121.984;2023-05-07T07:42:48;101312.0;;;27.88;25.34
48644;BME280;34928;37.302;-121.984;2023-05-07T07:52:53;101307.0;;;27.43;25.58
48644;BME280;34928;37.302;-121.984;2023-05-07T08:02:58;101309.0;;;27.21;25.68
48644;BME280;34928;37.302;-121.984;2023-05-07T08:13:03;101301.0;;;27.98;24.93
48644;BME280;34928;37.302;-121.984;2023-05-07T08:23:07;101300.0;;;27.43;25.29
48644;BME280;34928;37.302;-121.984;2023-05-07T08:33:13;101301.0;;;27.46;25.11
48644;BME280;34928;37.302;-121.984;2023-05-07T08:43:20;101306.0;;;27.82;24.94
48644;BME280;34928;37.302;-121.984;2023-05-07T08:53:33;101298.0;;;27.46;25.14
48644;BME280;34928;37.302;-121.984;2023-05-07T09:03:39;101290.0;;;27.11;25.50
48644;BME280;34928;37.302;-121.984;2023-05-07T09:13:43;101291.0;;;26.86;25.46
48644;BME280;34928;37.302;-121.984;2023-05-07T09:23:50;101285.0;;;27.13;25.30
48644;BME280;34928;37.302;-121.984;2023-05-07T09:33:58;101286.0;;;27.08;25.28
48644;BME280;34928;37.302;-121.984;2023-05-07T09:44:04;101282.0;;;27.29;25.27
48644;BME280;34928;37.302;-121.984;2023-05-07T09:54:08;101284.0;;;26.78;25.43
48644;BME280;34928;37.302;-121.984;2023-05-07T10:04:13;101281.0;;;27.04;25.40
48644;BME280;34928;37.302;-121.984;2023-05-07T10:14:19;101281.0;;;27.08;25.51
48644;BME280;34928;37.302;-121.984;2023-05-07T10:24:26;101279.0;;;26.94;25.55
48644;BME280;34928;37.302;-121.984;2023-05-07T10:34:38;101275.0;;;26.86;25.58
48644;BME280;34928;37.302;-121.984;2023-05-07T10:44:43;101274.0;;;26.60;25.76
48644;BME280;34928;37.302;-121.984;2023-05-07T11:05:23;101263.0;;;26.50;25.80
48644;BME280;34928;37.302;-121.984;2023-05-07T11:25:49;101256.0;;;26.41;25.80
48644;BME280;34928;37.302;-121.984;2023-05-07T11:35:55;101251.0;;;26.48;25.67
48644;BME280;34928;37.302;-121.984;2023-05-07T11:46:08;101253.0;;;26.40;25.74
48644;BME280;34928;37.302;-121.984;2023-05-07T11:56:16;101250.0;;;26.15;25.90
48644;BME280;34928;37.302;-121.984;2023-05-07T12:06:26;101257.0;;;26.08;25.95
48644;BME280;34928;37.302;-121.984;2023-05-07T12:16:33;101260.0;;;25.98;25.98
48644;BME280;34928;37.302;-121.984;2023-05-07T12:26:39;101263.0;;;26.02;25.90
48644;BME280;34928;37.302;-121.984;2023-05-07T12:36:43;101261.0;;;26.17;25.97
48644;BME280;34928;37.302;-121.984;2023-05-07T12:46:48;101259.0;;;26.29;25.76
48644;BME280;34928;37.302;-121.984;2023-05-07T12:57:01;101264.0;;;25.92;26.11
48644;BME280;34928;37.302;-121.984;2023-05-07T13:07:08;101268.0;;;25.70;26.04
48644;BME280;34928;37.302;-121.984;2023-05-07T13:17:13;101266.0;;;25.88;26.07
48644;BME280;34928;37.302;-121.984;2023-05-07T13:27:22;101273.0;;;25.92;25.98
48644;BME280;34928;37.302;-121.984;2023-05-07T13:37:28;101278.0;;;25.93;25.94
48644;BME280;34928;37.302;-121.984;2023-05-07T13:47:34;101290.0;;;25.60;26.19
48644;BME280;34928;37.302;-121.984;2023-05-07T13:57:38;101291.0;;;26.07;26.25
48644;BME280;34928;37.302;-121.984;2023-05-07T14:07:43;101293.0;;;27.36;25.61
48644;BME280;34928;37.302;-121.984;2023-05-07T14:17:48;101298.0;;;27.06;25.27
48644;BME280;34928;37.302;-121.984;2023-05-07T14:27:53;101298.0;;;26.76;25.35
48644;BME280;34928;37.302;-121.984;2023-05-07T14:37:58;101298.0;;;26.50;25.57
48644;BME280;34928;37.302;-121.984;2023-05-07T14:48:03;101310.0;;;26.42;25.72
48644;BME280;34928;37.302;-121.984;2023-05-07T14:58:08;101310.0;;;26.24;25.66
48644;BME280;34928;37.302;-121.984;2023-05-07T15:08:12;101319.0;;;26.11;25.99
48644;BME280;34928;37.302;-121.984;2023-05-07T15:18:18;101325.0;;;26.06;26.44
48644;BME280;34928;37.302;-121.984;2023-05-07T15:28:23;101327.0;;;26.18;26.40
48644;BME280;34928;37.302;-121.984;2023-05-07T15:38:28;101328.0;;;25.99;26.41
48644;BME280;34928;37.302;-121.984;2023-05-07T15:48:33;101319.0;;;25.83;27.12
48644;BME280;34928;37.302;-121.984;2023-05-07T15:58:38;101323.0;;;26.07;26.95
48644;BME280;34928;37.302;-121.984;2023-05-07T16:08:43;101332.0;;;26.18;27.29
48644;BME280;34928;37.302;-121.984;2023-05-07T16:18:48;101333.0;;;26.04;26.23
48644;BME280;34928;37.302;-121.984;2023-05-07T16:28:53;101336.0;;;26.19;26.58
48644;BME280;34928;37.302;-121.984;2023-05-07T16:38:58;101327.0;;;25.67;27.13
48644;BME280;34928;37.302;-121.984;2023-05-07T16:49:03;101326.0;;;25.76;27.04
48644;BME280;34928;37.302;-121.984;2023-05-07T16:59:08;101328.0;;;25.90;27.32
48644;BME280;34928;37.302;-121.984;2023-05-07T17:09:13;101325.0;;;25.77;26.89
48644;BME280;34928;37.302;-121.984;2023-05-07T17:19:18;101331.0;;;25.84;26.85
48644;BME280;34928;37.302;-121.984;2023-05-07T17:29:23;101335.0;;;26.02;26.68
48644;BME280;34928;37.302;-121.984;2023-05-07T17:39:27;101338.0;;;26.25;26.73
48644;BME280;34928;37.302;-121.984;2023-05-07T17:49:33;101331.0;;;26.47;26.58
48644;BME280;34928;37.302;-121.984;2023-05-07T17:59:38;101332.0;;;26.02;26.86
48644;BME280;34928;37.302;-121.984;2023-05-07T18:09:42;101330.0;;;25.98;27.00
48644;BME280;34928;37.302;-121.984;2023-05-07T18:19:48;101320.0;;;26.31;26.92
48644;BME280;34928;37.302;-121.984;2023-05-07T18:29:54;101318.0;;;26.10;27.52
48644;BME280;34928;37.302;-121.984;2023-05-07T18:39:58;101319.0;;;26.37;27.56
48644;BME280;34928;37.302;-121.984;2023-05-07T18:50:04;101307.0;;;26.31;27.82
48644;BME280;34928;37.302;-121.984;2023-05-07T19:00:09;101294.0;;;26.55;27.65
48644;BME280;34928;37.302;-121.984;2023-05-07T19:10:14;101288.0;;;26.59;27.54
48644;BME280;34928;37.302;-121.984;2023-05-07T19:20:18;101288.0;;;26.66;27.41
48644;BME280;34928;37.302;-121.984;2023-05-07T19:30:24;101279.0;;;26.56;27.49
48644;BME280;34928;37.302;-121.984;2023-05-07T19:40:28;101269.0;;;26.48;27.55
48644;BME280;34928;37.302;-121.984;2023-05-07T19:50:33;101269.0;;;26.56;27.45
48644;BME280;34928;37.302;-121.984;2023-05-07T20:00:38;101258.0;;;26.49;27.48
48644;BME280;34928;37.302;-121.984;2023-05-07T20:10:42;101244.0;;;26.44;27.36
48644;BME280;34928;37.302;-121.984;2023-05-07T20:20:48;101248.0;;;26.83;27.73
48644;BME280;34928;37.302;-121.984;2023-05-07T20:30:53;101242.0;;;27.04;27.88
48644;BME280;34928;37.302;-121.984;2023-05-07T20:40:58;101236.0;;;26.93;26.73
48644;BME280;34928;37.302;-121.984;2023-05-07T20:51:03;101237.0;;;26.94;26.33
48644;BME280;34928;37.302;-121.984;2023-05-07T21:01:08;101247.0;;;27.00;24.49
48644;BME280;34928;37.302;-121.984;2023-05-07T21:11:13;101254.0;;;27.45;25.06
48644;BME280;34928;37.302;-121.984;2023-05-07T21:21:18;101249.0;;;27.06;25.24
48644;BME280;34928;37.302;-121.984;2023-05-07T21:31:23;101252.0;;;27.30;24.71
48644;BME280;34928;37.302;-121.984;2023-05-07T21:41:28;101257.0;;;27.31;24.53
48644;BME280;34928;37.302;-121.984;2023-05-07T21:51:33;101254.0;;;27.24;24.72
48644;BME280;34928;37.302;-121.984;2023-05-07T22:01:38;101254.0;;;27.13;24.86
48644;BME280;34928;37.302;-121.984;2023-05-07T22:11:43;101249.0;;;27.32;25.80
48644;BME280;34928;37.302;-121.984;2023-05-07T22:21:47;101245.0;;;27.44;25.25
48644;BME280;34928;37.302;-121.984;2023-05-07T22:31:53;101233.0;;;27.21;24.83
48644;BME280;34928;37.302;-121.984;2023-05-07T22:41:59;101220.0;;;27.04;24.31
48644;BME280;34928;37.302;-121.984;2023-05-07T22:52:04;101217.0;;;27.29;24.63
48644;BME280;34928;37.302;-121.984;2023-05-07T23:02:07;101211.0;;;26.86;24.32
48644;BME280;34928;37.302;-121.984;2023-05-07T23:12:13;101203.0;;;26.91;24.24
48644;BME280;34928;37.302;-121.984;2023-05-07T23:22:18;101197.0;;;27.34;24.44
48644;BME280;34928;37.302;-121.984;2023-05-07T23:32:23;101194.0;;;26.86;24.58
48644;BME280;34928;37.302;-121.984;2023-05-07T23:42:27;101188.0;;;27.15;24.27
48644;BME280;34928;37.302;-121.984;2023-05-07T23:52:33;101181.0;;;26.61;24.21
